Time;durP1;ratioP1;P1;durP2;ratioP2;P2;SDS_P1;SDS_P2;PMS_P1;PMS_P2;Temp;Humidity;BMP_temperature;BMP_pressure;BME280_temperature;BME280_humidity;BME280_pressure;Samples;Min_cycle;Max_cycle;Signal;HPM_P1;HPM_P2
2023/05/02 00:00:17;;;;;;;1.63;1.52;;;20.20;86.50;;;;;;6245993;22;20067;-71
2023/05/02 00:02:43;;;;;;;1.50;1.40;;;20.10;86.50;;;;;;6245429;23;20016;-72
2023/05/02 00:05:09;;;;;;;1.60;1.50;;;;;;;;;;6245881;23;20062;-72
2023/05/02 00:07:36;;;;;;;1.65;1.55;;;20.40;82.00;;;;;;6245894;23;20004;-72
2023/05/02 00:10:02;;;;;;;1.65;1.30;;;;;;;;;;6245906;22;19997;-72
2023/05/02 00:12:29;;;;;;;2.05;1.30;;;;;;;;;;6245811;23;20008;-72
2023/05/02 00:14:55;;;;;;;2.08;1.60;;;19.70;77.40;;;;;;6245861;23;20054;-72
2023/05/02 00:17:21;;;;;;;1.30;1.20;;;;;;;;;;6245396;23;19993;-72
2023/05/02 00:19:47;;;;;;;1.58;1.48;;;20.00;86.80;;;;;;6245851;23;20004;-72
2023/05/02 00:22:13;;;;;;;1.00;1.00;;;;;;;;;;6245618;23;19996;-72
2023/05/02 00:24:40;;;;;;;1.35;1.25;;;;;;;;;;6245744;23;20359;-72
2023/05/02 00:27:06;;;;;;;1.52;1.30;;;20.10;72.40;;;;;;6245506;23;20325;-72
2023/05/02 00:29:32;;;;;;;1.58;1.42;;;20.10;86.40;;;;;;6245669;22;20004;-72
2023/05/02 00:31:59;;;;;;;1.45;1.30;;;;;;;;;;6245640;23;19996;-72
2023/05/02 00:34:29;;;;;;;1.20;1.10;;;20.20;50.20;;;;;;6245573;22;20015;-72
2023/05/02 00:36:56;;;;;;;1.45;1.20;;;20.10;86.40;;;;;;6245654;22;20000;-72
2023/05/02 00:39:22;;;;;;;1.17;1.13;;;19.90;56.70;;;;;;6245616;22;20390;-72
2023/05/02 00:41:48;;;;;;;1.20;1.10;;;20.40;72.70;;;;;;6245559;23;20304;-72
2023/05/02 00:44:14;;;;;;;1.00;0.98;;;;;;;;;;6245474;22;20063;-72
2023/05/02 00:46:40;;;;;;;1.60;1.20;;;20.00;86.10;;;;;;6245138;23;20083;-71
2023/05/02 00:49:06;;;;;;;1.17;1.10;;;19.90;86.00;;;;;;6245596;23;20066;-71
2023/05/02 00:51:33;;;;;;;1.55;1.00;;;20.50;86.30;;;;;;6245226;23;20370;-72
2023/05/02 00:54:00;;;;;;;1.15;1.15;;;20.20;86.40;;;;;;6245666;22;20008;-72
2023/05/02 00:56:26;;;;;;;1.17;1.08;;;19.90;73.10;;;;;;6245324;22;20404;-72
2023/05/02 00:58:53;;;;;;;1.27;1.17;;;20.50;84.10;;;;;;6245616;22;20084;-72
2023/05/02 01:01:39;;;;;;;1.02;0.93;;;20.10;86.30;;;;;;6244981;22;19997;-72
2023/05/02 01:04:38;;;;;;;1.58;0.95;;;20.20;50.20;;;;;;6245345;22;20442;-72
2023/05/02 01:07:15;;;;;;;1.10;1.00;;;20.20;59.10;;;;;;6245336;22;20004;-71
2023/05/02 01:10:08;;;;;;;1.10;1.00;;;20.50;72.90;;;;;;6245297;22;20016;-71
2023/05/02 01:12:44;;;;;;;1.30;1.20;;;20.50;86.80;;;;;;6244930;22;20004;-76
2023/05/02 01:15:17;;;;;;;1.10;0.82;;;20.40;81.50;;;;;;6244601;22;20439;-76
2023/05/02 01:17:46;;;;;;;1.20;1.08;;;20.20;54.00;;;;;;6244937;22;19996;-76
2023/05/02 01:20:16;;;;;;;1.00;1.00;;;19.80;53.70;;;;;;6245106;22;20004;-76
2023/05/02 01:22:42;;;;;;;;;;;20.10;54.70;;;;;;6245647;22;20023;-76
2023/05/02 01:25:33;;;;;;;3.05;1.15;;;20.20;50.20;;;;;;6245070;22;19900;-77
2023/05/02 01:28:35;;;;;;;0.88;0.85;;;20.10;50.10;;;;;;6244888;22;20511;-76
2023/05/02 01:31:03;;;;;;;1.27;1.00;;;19.90;86.20;;;;;;6244377;23;20004;-77
2023/05/02 01:33:29;;;;;;;1.27;0.90;;;20.40;86.50;;;;;;6244884;22;20015;-76
2023/05/02 01:35:57;;;;;;;1.00;0.85;;;20.10;54.10;;;;;;6244704;22;20446;-76
2023/05/02 01:38:24;;;;;;;1.42;0.77;;;;;;;;;;6244957;22;20454;-76
2023/05/02 01:40:50;;;;;;;1.60;0.80;;;20.40;68.80;;;;;;6244765;23;20002;-76
2023/05/02 01:43:19;;;;;;;1.02;0.80;;;20.20;68.30;;;;;;6254814;22;20073;-76
2023/05/02 01:45:48;;;;;;;1.00;0.80;;;20.10;53.80;;;;;;6254862;22;19992;-76
2023/05/02 01:48:15;;;;;;;2.25;0.90;;;20.30;86.70;;;;;;6254829;22;20004;-77
2023/05/02 01:50:42;;;;;;;2.08;0.90;;;19.80;86.20;;;;;;6254492;22;19997;-76
2023/05/02 01:53:10;;;;;;;1.40;0.77;;;20.10;53.70;;;;;;6254574;22;20519;-76
2023/05/02 01:55:37;;;;;;;1.27;0.80;;;20.10;54.00;;;;;;6254631;22;19996;-76
2023/05/02 01:58:05;;;;;;;0.85;0.80;;;20.30;62.80;;;;;;6254770;22;20023;-76
2023/05/02 02:00:32;;;;;;;1.65;0.95;;;20.20;62.50;;;;;;6254602;22;20071;-76
2023/05/02 02:02:59;;;;;;;1.52;0.98;;;20.10;53.80;;;;;;6254369;22;20075;-76
2023/05/02 02:05:27;;;;;;;0.90;0.80;;;20.20;86.40;;;;;;6254764;22;20142;-76
2023/05/02 02:07:53;;;;;;;1.90;0.85;;;;;;;;;;6254514;22;20004;-77
2023/05/02 02:10:19;;;;;;;2.50;0.73;;;20.20;86.50;;;;;;6254543;23;20075;-76
2023/05/02 02:12:51;;;;;;;1.83;0.75;;;20.10;53.90;;;;;;6244422;23;20407;-76
2023/05/02 02:15:27;;;;;;;0.80;0.60;;;20.30;72.60;;;;;;6254731;22;20023;-76
2023/05/02 02:18:12;;;;;;;0.90;0.70;;;20.20;86.60;;;;;;6244714;22;19996;-76
2023/05/02 02:20:42;;;;;;;1.13;0.82;;;19.80;66.70;;;;;;6244643;22;20074;-76
2023/05/02 02:23:10;;;;;;;0.73;0.63;;;19.90;84.70;;;;;;6244413;22;20000;-76
2023/05/02 02:25:37;;;;;;;1.48;0.60;;;20.10;86.60;;;;;;6244352;22;19996;-76
2023/05/02 02:28:03;;;;;;;1.23;0.65;;;20.10;86.50;;;;;;6244676;22;20066;-76
2023/05/02 02:30:30;;;;;;;1.10;0.70;;;;;;;;;;6244657;23;20083;-76
2023/05/02 02:32:56;;;;;;;2.15;0.80;;;20.20;72.10;;;;;;6244650;23;20352;-76
2023/05/02 02:35:25;;;;;;;1.25;0.68;;;20.20;59.80;;;;;;6244553;23;20062;-76
2023/05/02 02:37:57;;;;;;;2.35;1.02;;;20.00;53.70;;;;;;6244526;22;20000;-76
2023/05/02 02:40:24;;;;;;;1.73;0.70;;;;;;;;;;6244365;22;20003;-76
2023/05/02 02:43:14;;;;;;;1.27;0.63;;;20.20;60.60;;;;;;6244272;23;20005;-77
2023/05/02 02:46:27;;;;;;;1.50;0.60;;;20.20;56.40;;;;;;6244538;22;20000;-77
2023/05/02 02:49:13;;;;;;;1.23;0.60;;;19.90;86.40;;;;;;6244013;22;19992;-77
2023/05/02 02:51:49;;;;;;;3.38;1.10;;;20.10;86.60;;;;;;6243806;23;20042;-76
2023/05/02 02:54:30;;;;;;;0.65;0.50;;;19.70;86.30;;;;;;6246066;22;20008;-76
2023/05/02 02:57:23;;;;;;;1.52;0.70;;;20.20;86.50;;;;;;6246027;22;20007;-77
2023/05/02 03:00:16;;;;;;;0.60;0.50;;;20.00;53.90;;;;;;6246315;22;20022;-76
2023/05/02 03:02:45;;;;;;;2.38;0.75;;;19.90;86.50;;;;;;6230039;22;20009;-76
2023/05/02 03:05:12;;;;;;;1.13;0.70;;;19.80;54.00;;;;;;6246111;22;20015;-76
2023/05/02 03:07:38;;;;;;;0.85;0.68;;;;;;;;;;6246484;22;19996;-76
2023/05/02 03:10:04;;;;;;;2.00;0.82;;;19.90;53.20;;;;;;6256078;23;20346;-76
2023/05/02 03:12:30;;;;;;;1.38;0.75;;;20.00;65.40;;;;;;6256072;22;20020;-76
2023/05/02 03:15:18;;;;;;;2.05;0.60;;;19.90;77.00;;;;;;6256057;22;20031;-76
2023/05/02 03:17:44;;;;;;;0.80;0.68;;;;;;;;;;6248934;22;20103;-76
2023/05/02 03:20:10;;;;;;;1.48;0.70;;;;;;;;;;6246204;22;20034;-76
2023/05/02 03:22:36;;;;;;;1.85;0.68;;;;;;;;;;6255990;23;19992;-76
2023/05/02 03:25:02;;;;;;;1.33;0.50;;;;;;;;;;6246052;23;20011;-77
2023/05/02 03:27:28;;;;;;;0.52;0.40;;;;;;;;;;6246126;23;20080;-76
2023/05/02 03:29:54;;;;;;;2.42;0.80;;;;;;;;;;6255875;23;20062;-76
2023/05/02 03:32:20;;;;;;;1.27;0.65;;;;;;;;;;6255928;23;19999;-76
2023/05/02 03:34:46;;;;;;;1.48;0.70;;;;;;;;;;6255919;22;20012;-77
2023/05/02 03:37:12;;;;;;;2.50;0.43;;;;;;;;;;6256020;23;19992;-77
2023/05/02 03:39:38;;;;;;;1.65;0.70;;;;;;;;;;6256064;23;20335;-77
2023/05/02 03:42:04;;;;;;;0.85;0.50;;;19.70;86.60;;;;;;6245633;23;20482;-77
2023/05/02 03:44:31;;;;;;;0.57;0.50;;;;;;;;;;6245641;23;19996;-77
2023/05/02 03:46:57;;;;;;;0.95;0.60;;;19.80;81.00;;;;;;6245621;23;20000;-77
2023/05/02 03:49:23;;;;;;;0.60;0.50;;;20.00;86.50;;;;;;6245646;23;20076;-77
2023/05/02 03:51:49;;;;;;;3.08;0.90;;;20.00;86.50;;;;;;6245997;22;20027;-77
2023/05/02 03:54:15;;;;;;;1.05;0.70;;;19.80;86.60;;;;;;6245585;23;20035;-77
2023/05/02 03:56:43;;;;;;;1.33;0.50;;;;;;;;;;6245693;22;19996;-77
2023/05/02 03:59:08;;;;;;;1.08;0.55;;;19.60;86.50;;;;;;6255719;22;20000;-77
2023/05/02 04:01:34;;;;;;;1.65;0.77;;;20.10;73.00;;;;;;6255392;23;20004;-76
2023/05/02 04:04:01;;;;;;;1.75;0.73;;;;;;;;;;6245604;23;20071;-77
2023/05/02 04:06:27;;;;;;;1.88;0.57;;;19.90;86.90;;;;;;6245819;22;20055;-77
2023/05/02 04:08:53;;;;;;;1.48;0.60;;;;;;;;;;6245428;23;20435;-77
2023/05/02 04:11:20;;;;;;;1.60;0.55;;;;;;;;;;6245782;23;20000;-77
2023/05/02 04:13:46;;;;;;;1.98;0.50;;;;;;;;;;6245404;23;20008;-77
2023/05/02 04:16:12;;;;;;;1.13;0.47;;;;;;;;;;6245639;23;20004;-77
2023/05/02 04:18:38;;;;;;;1.17;0.43;;;19.80;86.70;;;;;;6245459;23;20004;-76
2023/05/02 04:21:08;;;;;;;1.08;0.57;;;19.70;86.70;;;;;;6246087;23;19997;-76
2023/05/02 04:23:34;;;;;;;1.02;0.50;;;19.80;86.70;;;;;;6246236;22;20051;-76
2023/05/02 04:26:00;;;;;;;0.90;0.40;;;19.80;86.90;;;;;;6245296;23;20359;-75
2023/05/02 04:28:26;;;;;;;0.95;0.60;;;19.50;86.70;;;;;;6243809;23;20084;-75
2023/05/02 04:30:52;;;;;;;1.10;0.40;;;19.90;87.00;;;;;;6245683;23;20077;-75
2023/05/02 04:33:18;;;;;;;1.40;0.55;;;19.80;86.80;;;;;;6245478;22;20011;-76
2023/05/02 04:35:45;;;;;;;0.88;0.35;;;20.00;87.00;;;;;;6245553;23;20007;-76
2023/05/02 04:38:11;;;;;;;1.00;0.30;;;19.30;86.50;;;;;;6245386;23;20000;-76
2023/05/02 04:40:37;;;;;;;2.33;0.50;;;19.90;60.50;;;;;;6245236;23;20489;-76
2023/05/02 04:43:03;;;;;;;1.08;0.70;;;;;;;;;;6245517;22;20362;-76
2023/05/02 04:45:29;;;;;;;0.63;0.55;;;19.60;86.70;;;;;;6245543;22;20480;-76
2023/05/02 04:47:56;;;;;;;2.10;0.75;;;;;;;;;;6245460;23;20000;-76
2023/05/02 04:50:22;;;;;;;0.90;0.50;;;;;;;;;;6244960;23;20053;-76
2023/05/02 04:52:48;;;;;;;1.38;0.60;;;19.70;86.80;;;;;;6245377;23;20011;-76
2023/05/02 04:55:14;;;;;;;0.70;0.40;;;20.00;87.00;;;;;;6245258;22;20087;-76
2023/05/02 04:57:40;;;;;;;0.88;0.68;;;19.50;86.80;;;;;;6245372;23;20379;-76
2023/05/02 05:00:07;;;;;;;0.40;0.30;;;19.50;86.80;;;;;;6245003;23;20052;-76
2023/05/02 05:02:33;;;;;;;3.28;0.50;;;19.50;87.00;;;;;;6244765;22;20008;-76
2023/05/02 05:05:01;;;;;;;0.52;0.30;;;19.60;54.10;;;;;;6245306;23;20067;-77
2023/05/02 05:07:30;;;;;;;1.35;0.68;;;19.70;86.30;;;;;;6244900;22;20485;-76
2023/05/02 05:09:56;;;;;;;1.27;0.55;;;;;;;;;;6245298;23;20024;-78
2023/05/02 05:12:23;;;;;;;0.40;0.32;;;;;;;;;;6244833;23;20400;-77
2023/05/02 05:14:49;;;;;;;0.95;0.47;;;19.40;87.10;;;;;;6244728;23;20321;-77
2023/05/02 05:17:16;;;;;;;1.60;0.57;;;;;;;;;;6244788;22;19996;-77
2023/05/02 05:19:42;;;;;;;0.70;0.40;;;;;;;;;;6245044;23;20015;-77
2023/05/02 05:22:08;;;;;;;1.15;0.40;;;;;;;;;;6244684;23;20015;-77
2023/05/02 05:24:34;;;;;;;1.20;0.55;;;19.60;87.30;;;;;;6245055;23;20027;-77
2023/05/02 05:27:01;;;;;;;1.08;0.70;;;19.50;87.40;;;;;;6244790;23;20000;-77
2023/05/02 05:29:28;;;;;;;2.22;0.50;;;;;;;;;;6250129;22;20000;-77
2023/05/02 05:31:54;;;;;;;0.88;0.25;;;19.80;73.10;;;;;;6247838;23;20296;-78
2023/05/02 05:34:21;;;;;;;2.10;0.40;;;19.60;72.20;;;;;;6244931;23;20062;-77
2023/05/02 05:36:47;;;;;;;1.27;0.55;;;19.70;87.30;;;;;;6244991;22;19996;-76
2023/05/02 05:39:13;;;;;;;0.63;0.32;;;19.10;86.50;;;;;;6244556;23;20301;-76
2023/05/02 05:41:39;;;;;;;3.22;0.40;;;;;;;;;;6244481;23;20495;-76
2023/05/02 05:44:05;;;;;;;0.85;0.30;;;19.60;87.70;;;;;;6244640;23;20004;-81
2023/05/02 05:46:32;;;;;;;1.10;0.47;;;;;;;;;;6244547;23;20557;-77
2023/05/02 05:48:58;;;;;;;2.53;0.38;;;;;;;;;;6244552;23;20004;-77
2023/05/02 05:51:26;;;;;;;1.10;0.40;;;;;;;;;;6254780;23;19992;-76
2023/05/02 05:53:53;;;;;;;1.98;0.70;;;;;;;;;;6244509;22;20012;-77
2023/05/02 05:56:18;;;;;;;1.05;0.47;;;19.70;63.90;;;;;;6244817;22;20300;-74
2023/05/02 05:58:44;;;;;;;2.45;0.60;;;19.50;63.00;;;;;;6254562;23;20011;-76
2023/05/02 06:01:10;;;;;;;0.80;0.40;;;;;;;;;;6244680;23;19992;-76
2023/05/02 06:03:36;;;;;;;3.85;0.50;;;;;;;;;;6244252;22;20015;-76
2023/05/02 06:06:02;;;;;;;3.95;0.57;;;;;;;;;;6254597;23;20071;-75
2023/05/02 06:08:28;;;;;;;2.10;0.47;;;;;;;;;;6254750;23;20003;-74
2023/05/02 06:10:54;;;;;;;1.13;0.35;;;19.40;66.10;;;;;;6254616;22;20003;-78
2023/05/02 06:13:20;;;;;;;1.73;0.50;;;;;;;;;;6242645;23;20378;-74
2023/05/02 06:15:46;;;;;;;1.40;0.57;;;19.50;71.20;;;;;;6244153;23;20003;-75
2023/05/02 06:18:13;;;;;;;2.28;0.55;;;19.40;53.10;;;;;;6244678;23;20000;-73
2023/05/02 06:20:39;;;;;;;1.33;0.63;;;;;;;;;;6244613;23;19999;-74
2023/05/02 06:23:05;;;;;;;0.65;0.50;;;19.70;88.10;;;;;;6244695;23;20004;-76
2023/05/02 06:25:32;;;;;;;3.40;0.70;;;19.10;80.80;;;;;;6244234;23;20061;-74
2023/05/02 06:27:59;;;;;;;2.10;0.68;;;;;;;;;;6244287;22;20000;-74
2023/05/02 06:30:25;;;;;;;1.25;0.50;;;19.40;81.40;;;;;;6243949;23;20427;-74
2023/05/02 06:32:51;;;;;;;2.13;0.35;;;19.40;87.90;;;;;;6244305;22;20010;-74
2023/05/02 06:35:18;;;;;;;1.85;0.50;;;;;;;;;;6242303;23;20020;-74
2023/05/02 06:37:44;;;;;;;2.20;0.60;;;;;;;;;;6243854;23;20001;-72
2023/05/02 06:40:12;;;;;;;1.98;0.73;;;19.30;87.20;;;;;;6244345;23;20004;-74
2023/05/02 06:42:38;;;;;;;3.75;0.95;;;;;;;;;;6244346;22;19996;-74
2023/05/02 06:45:05;;;;;;;3.03;0.70;;;19.40;87.10;;;;;;6244226;23;20008;-74
2023/05/02 06:47:31;;;;;;;4.35;0.82;;;19.00;87.00;;;;;;6254104;22;20071;-74
2023/05/02 06:49:57;;;;;;;2.00;0.60;;;19.40;87.20;;;;;;6243782;22;20050;-74
2023/05/02 06:52:24;;;;;;;3.53;0.73;;;;;;;;;;6243959;23;19999;-74
2023/05/02 06:54:50;;;;;;;2.50;0.60;;;;;;;;;;6244073;23;20453;-74
2023/05/02 06:57:16;;;;;;;4.85;0.82;;;;;;;;;;6254041;23;19999;-74
2023/05/02 06:59:42;;;;;;;4.15;1.25;;;;;;;;;;6254073;23;20063;-74
2023/05/02 07:02:08;;;;;;;2.30;0.75;;;;;;;;;;6253799;23;20067;-74
2023/05/02 07:04:34;;;;;;;4.40;1.30;;;;;;;;;;6254187;23;20341;-74
2023/05/02 07:07:00;;;;;;;1.38;0.80;;;;;;;;;;6253989;23;20004;-74
2023/05/02 07:09:26;;;;;;;3.42;1.10;;;;;;;;;;6243815;23;20000;-74
2023/05/02 07:11:52;;;;;;;2.15;0.60;;;19.30;87.30;;;;;;6244177;23;20001;-74
2023/05/02 07:14:19;;;;;;;2.92;0.90;;;;;;;;;;6244261;23;20008;-74
2023/05/02 07:16:46;;;;;;;4.68;0.60;;;;;;;;;;6243942;22;20000;-74
2023/05/02 07:19:12;;;;;;;5.25;0.82;;;;;;;;;;6244173;23;20000;-74
2023/05/02 07:21:38;;;;;;;2.10;0.70;;;;;;;;;;6243776;23;20430;-74
2023/05/02 07:24:04;;;;;;;2.10;0.65;;;19.70;72.20;;;;;;6253920;23;19996;-74
2023/05/02 07:26:30;;;;;;;1.88;0.80;;;;;;;;;;6254053;23;20332;-74
2023/05/02 07:28:56;;;;;;;3.08;0.88;;;;;;;;;;6253958;23;20431;-74
2023/05/02 07:31:22;;;;;;;2.20;0.70;;;19.30;78.50;;;;;;6243630;23;20032;-74
2023/05/02 07:33:48;;;;;;;2.10;0.85;;;;;;;;;;6244120;23;20050;-74
2023/05/02 07:36:15;;;;;;;2.30;0.88;;;;;;;;;;6244188;23;19996;-74
2023/05/02 07:38:42;;;;;;;2.35;0.80;;;;;;;;;;6244397;22;20435;-74
2023/05/02 07:41:08;;;;;;;1.80;0.70;;;;;;;;;;6245789;23;20042;-74
2023/05/02 07:43:34;;;;;;;2.42;0.80;;;19.40;74.80;;;;;;6245530;23;20007;-74
2023/05/02 07:46:04;;;;;;;2.33;0.80;;;19.40;54.60;;;;;;6255626;23;19996;-74
2023/05/02 07:48:30;;;;;;;4.45;0.80;;;;;;;;;;6255693;22;19996;-74
2023/05/02 07:50:57;;;;;;;4.13;0.90;;;;;;;;;;6255514;23;20058;-74
2023/05/02 07:53:23;;;;;;;1.23;0.60;;;19.20;87.60;;;;;;6245716;22;20032;-74
2023/05/02 07:55:49;;;;;;;1.75;0.73;;;19.20;87.60;;;;;;6245860;22;20016;-74
2023/05/02 07:58:15;;;;;;;2.40;0.73;;;19.50;87.60;;;;;;6255595;23;20305;-74
2023/05/02 08:00:41;;;;;;;3.60;0.63;;;19.10;87.50;;;;;;6255684;22;19996;-74
2023/05/02 08:03:07;;;;;;;3.80;0.82;;;19.10;79.00;;;;;;6245027;23;20454;-74
2023/05/02 08:05:33;;;;;;;1.88;0.70;;;19.40;87.60;;;;;;6245599;23;19996;-74
2023/05/02 08:08:00;;;;;;;3.83;1.17;;;19.50;85.90;;;;;;6255367;23;20027;-74
2023/05/02 08:10:26;;;;;;;5.22;0.98;;;;;;;;;;6245514;22;20063;-74
2023/05/02 08:12:52;;;;;;;2.08;0.75;;;;;;;;;;6255346;23;20035;-74
2023/05/02 08:15:18;;;;;;;2.13;0.95;;;;;;;;;;6255345;23;19996;-74
2023/05/02 08:17:44;;;;;;;2.83;0.55;;;;;;;;;;6255409;23;19999;-74
2023/05/02 08:20:10;;;;;;;2.08;1.00;;;;;;;;;;6255254;23;20311;-73
2023/05/02 08:22:36;;;;;;;3.03;0.88;;;;;;;;;;6262307;23;19996;-74
2023/05/02 08:25:02;;;;;;;4.13;1.23;;;;;;;;;;6256395;23;20000;-74
2023/05/02 08:27:28;;;;;;;2.50;1.10;;;;;;;;;;6243507;23;20003;-73
2023/05/02 08:29:54;;;;;;;2.90;0.95;;;;;;;;;;6255255;23;20004;-73
2023/05/02 08:32:21;;;;;;;3.58;0.75;;;19.30;87.60;;;;;;6245376;23;20000;-74
2023/05/02 08:34:47;;;;;;;2.42;1.02;;;19.40;88.10;;;;;;6245035;22;20004;-74
2023/05/02 08:37:13;;;;;;;1.38;0.60;;;;;;;;;;6245249;23;20000;-74
2023/05/02 08:39:39;;;;;;;1.02;0.52;;;19.30;87.50;;;;;;6245241;23;20037;-74
2023/05/02 08:42:06;;;;;;;1.85;0.73;;;19.30;54.90;;;;;;6245062;22;20000;-74
2023/05/02 08:44:32;;;;;;;1.60;0.90;;;;;;;;;;6255014;22;20000;-74
2023/05/02 08:46:59;;;;;;;1.25;0.77;;;19.60;60.50;;;;;;6255156;23;20067;-74
2023/05/02 08:49:28;;;;;;;1.88;0.70;;;19.50;87.50;;;;;;6244987;22;20277;-74
2023/05/02 08:51:55;;;;;;;1.27;0.70;;;19.30;53.60;;;;;;6244545;22;20134;-74
2023/05/02 08:54:24;;;;;;;1.70;0.55;;;19.60;87.70;;;;;;6245033;22;20377;-74
2023/05/02 08:56:54;;;;;;;1.30;0.55;;;19.40;54.70;;;;;;6244806;22;19998;-73
2023/05/02 08:59:20;;;;;;;2.08;0.88;;;;;;;;;;6244662;23;20440;-74
2023/05/02 09:01:51;;;;;;;2.15;0.60;;;19.80;55.10;;;;;;6245055;23;20001;-76
2023/05/02 09:04:23;;;;;;;2.53;0.80;;;19.50;55.00;;;;;;6244983;22;20293;-75
2023/05/02 09:06:49;;;;;;;1.65;0.50;;;19.70;87.70;;;;;;6244690;22;19992;-74
2023/05/02 09:09:15;;;;;;;1.48;0.50;;;19.70;88.00;;;;;;6245044;23;20004;-74
2023/05/02 09:11:42;;;;;;;1.08;0.50;;;;;;;;;;6245116;22;20003;-74
2023/05/02 09:14:15;;;;;;;1.42;0.63;;;21.70;52.00;;;;;;6244883;23;20008;-74
2023/05/02 09:16:42;;;;;;;1.10;0.52;;;19.50;84.40;;;;;;6244608;22;20066;-74
2023/05/02 09:19:08;;;;;;;1.60;0.52;;;;;;;;;;6244964;22;19993;-74
2023/05/02 09:21:42;;;;;;;0.85;0.47;;;19.80;82.30;;;;;;6244875;23;20004;-74
2023/05/02 09:24:16;;;;;;;1.85;0.68;;;19.60;51.20;;;;;;6244492;22;20065;-74
2023/05/02 09:26:54;;;;;;;2.67;0.68;;;19.70;73.00;;;;;;6244861;22;20319;-74
2023/05/02 09:29:21;;;;;;;1.95;0.75;;;19.80;87.50;;;;;;6244477;22;20511;-73
2023/05/02 09:31:46;;;;;;;2.60;0.50;;;19.40;87.20;;;;;;6244774;23;19996;-74
2023/05/02 09:34:16;;;;;;;1.85;0.80;;;19.80;54.90;;;;;;6244225;23;20165;-74
2023/05/02 09:36:50;;;;;;;2.38;0.60;;;19.40;50.70;;;;;;6244604;22;19992;-74
2023/05/02 09:39:22;;;;;;;1.40;0.80;;;19.60;87.00;;;;;;6244254;22;20071;-74
2023/05/02 09:41:48;;;;;;;2.88;0.60;;;19.90;53.40;;;;;;6244761;22;20103;-74
2023/05/02 09:44:19;;;;;;;1.65;1.10;;;20.00;86.90;;;;;;6244739;22;20304;-74
2023/05/02 09:46:53;;;;;;;3.88;0.80;;;19.60;86.70;;;;;;6244350;22;19996;-74
2023/05/02 09:49:41;;;;;;;1.85;0.70;;;20.00;54.30;;;;;;6244645;22;20412;-74
2023/05/02 09:52:11;;;;;;;2.55;0.70;;;20.10;81.30;;;;;;6244997;22;20312;-73
2023/05/02 09:54:37;;;;;;;1.00;0.90;;;19.80;69.80;;;;;;6254484;22;20339;-74
2023/05/02 09:57:03;;;;;;;4.10;0.50;;;20.00;63.10;;;;;;6254596;23;20000;-74
2023/05/02 09:59:29;;;;;;;1.58;0.70;;;19.80;86.70;;;;;;6254503;22;20003;-74
2023/05/02 10:02:00;;;;;;;1.60;0.60;;;20.40;86.80;;;;;;6244118;23;19996;-74
2023/05/02 10:04:27;;;;;;;2.63;0.80;;;20.10;85.40;;;;;;6244636;22;20370;-74
2023/05/02 10:06:54;;;;;;;1.73;0.93;;;20.60;86.30;;;;;;6244604;22;20031;-74
2023/05/02 10:09:21;;;;;;;1.25;0.70;;;20.70;78.50;;;;;;6244491;22;20063;-74
2023/05/02 10:11:52;;;;;;;2.05;0.60;;;20.60;53.30;;;;;;6243859;22;20333;-74
2023/05/02 10:14:21;;;;;;;1.23;0.63;;;20.60;53.10;;;;;;6254348;22;20008;-75
2023/05/02 10:17:12;;;;;;;3.08;0.68;;;20.50;85.60;;;;;;6254300;22;20007;-75
2023/05/02 10:19:43;;;;;;;0.98;0.50;;;20.70;53.00;;;;;;6244440;22;20004;-74
2023/05/02 10:22:11;;;;;;;1.55;0.63;;;20.60;52.60;;;;;;6244583;23;20327;-75
2023/05/02 10:24:38;;;;;;;1.92;0.63;;;21.10;52.80;;;;;;6254104;22;20440;-76
2023/05/02 10:27:04;;;;;;;1.35;0.50;;;21.10;54.80;;;;;;6254369;22;20047;-76
2023/05/02 10:29:31;;;;;;;2.58;0.65;;;21.40;52.40;;;;;;6244050;22;20004;-78
2023/05/02 10:31:59;;;;;;;2.50;0.93;;;21.20;52.20;;;;;;6244290;22;20298;-75
2023/05/02 10:34:26;;;;;;;1.33;0.40;;;21.30;85.00;;;;;;6254241;22;20448;-74
2023/05/02 10:36:54;;;;;;;0.75;0.52;;;21.10;59.00;;;;;;6254195;22;20424;-76
2023/05/02 10:39:23;;;;;;;0.55;0.38;;;21.50;84.80;;;;;;6254180;22;20000;-75
2023/05/02 10:41:52;;;;;;;0.90;0.40;;;21.60;85.00;;;;;;6243966;22;19996;-75
2023/05/02 10:44:31;;;;;;;0.68;0.40;;;21.30;52.60;;;;;;6254442;22;20071;-76
2023/05/02 10:46:57;;;;;;;4.55;0.70;;;21.30;72.30;;;;;;6254286;22;20027;-78
2023/05/02 10:49:26;;;;;;;1.67;0.43;;;21.10;85.60;;;;;;6254166;23;20000;-77
2023/05/02 10:51:52;;;;;;;0.68;0.30;;;21.70;85.50;;;;;;6244339;22;19993;-78
2023/05/02 10:54:21;;;;;;;5.25;0.47;;;21.40;49.60;;;;;;6244376;22;20040;-77
2023/05/02 10:57:02;;;;;;;1.05;0.40;;;21.40;49.50;;;;;;6243949;22;19993;-76
2023/05/02 10:59:37;;;;;;;1.25;0.50;;;21.40;49.60;;;;;;6244521;22;20336;-77
2023/05/02 11:02:26;;;;;;;1.55;0.60;;;21.20;80.10;;;;;;6244058;22;20074;-77
2023/05/02 11:05:02;;;;;;;2.70;0.60;;;21.80;60.00;;;;;;6243681;22;20009;-77
2023/05/02 11:07:30;;;;;;;2.60;0.55;;;21.60;84.80;;;;;;6244226;22;20000;-77
2023/05/02 11:10:21;;;;;;;10.57;1.45;;;21.80;84.60;;;;;;6243677;22;20063;-77
2023/05/02 11:12:51;;;;;;;1.17;0.30;;;21.80;48.90;;;;;;6254201;23;20004;-75
2023/05/02 11:15:29;;;;;;;2.35;0.55;;;21.70;85.00;;;;;;6256371;22;20004;-75
2023/05/02 11:18:01;;;;;;;1.15;0.45;;;21.70;85.00;;;;;;6246011;23;20062;-78
2023/05/02 11:20:29;;;;;;;2.78;0.52;;;21.80;85.40;;;;;;6246322;22;20071;-76
2023/05/02 11:22:58;;;;;;;0.40;0.40;;;21.50;85.00;;;;;;6246476;22;20331;-76
2023/05/02 11:25:32;;;;;;;0.95;0.47;;;22.20;49.20;;;;;;6246498;22;20000;-76
2023/05/02 11:27:59;;;;;;;3.15;0.65;;;22.10;84.50;;;;;;6246372;22;20057;-76
2023/05/02 11:30:40;;;;;;;3.05;0.82;;;21.90;84.40;;;;;;6246624;22;20415;-76
2023/05/02 11:33:07;;;;;;;2.28;0.73;;;;;;;;;;6245951;22;20011;-76
2023/05/02 11:35:34;;;;;;;0.93;0.70;;;22.30;83.40;;;;;;6246579;22;20375;-76
2023/05/02 11:38:02;;;;;;;1.00;0.55;;;22.30;83.60;;;;;;6245872;22;20428;-76
2023/05/02 11:40:29;;;;;;;2.22;0.88;;;22.70;50.20;;;;;;6245608;22;20050;-76
2023/05/02 11:42:56;;;;;;;1.65;0.60;;;23.20;60.00;;;;;;6245110;22;20000;-76
2023/05/02 11:45:35;;;;;;;4.35;0.70;;;22.90;50.20;;;;;;6246361;22;20364;-77
2023/05/02 11:48:08;;;;;;;3.25;0.40;;;23.20;82.80;;;;;;6246287;22;20050;-76
2023/05/02 11:50:41;;;;;;;0.88;0.70;;;23.30;52.30;;;;;;6246346;22;20122;-75
2023/05/02 11:53:15;;;;;;;1.67;0.60;;;23.00;82.80;;;;;;6246255;22;20053;-75
2023/05/02 11:55:46;;;;;;;1.70;0.68;;;23.10;82.30;;;;;;6256328;22;20034;-77
2023/05/02 11:58:13;;;;;;;1.83;1.02;;;;;;;;;;6246150;22;20035;-76
2023/05/02 12:00:39;;;;;;;2.13;0.63;;;23.00;70.60;;;;;;6256195;22;19992;-76
2023/05/02 12:03:06;;;;;;;1.67;0.70;;;23.30;81.70;;;;;;6255731;22;20015;-76
2023/05/02 12:05:32;;;;;;;1.77;0.50;;;23.30;81.70;;;;;;6245855;22;19996;-76
2023/05/02 12:07:57;;;;;;;2.22;0.73;;;23.70;82.00;;;;;;6246220;22;20007;-76
2023/05/02 12:10:35;;;;;;;1.85;0.93;;;22.90;81.20;;;;;;6255955;23;19996;-76
2023/05/02 12:13:05;;;;;;;1.58;0.73;;;23.60;82.30;;;;;;6245606;22;20119;-76
2023/05/02 12:15:32;;;;;;;2.47;0.70;;;;;;;;;;6245690;22;20470;-76
2023/05/02 12:18:00;;;;;;;2.63;0.60;;;23.10;82.20;;;;;;6245669;22;20001;-77
2023/05/02 12:20:26;;;;;;;1.70;0.50;;;;;;;;;;6245878;22;20063;-74
2023/05/02 12:22:52;;;;;;;2.53;0.75;;;23.80;72.10;;;;;;6245770;23;20000;-77
2023/05/02 12:25:18;;;;;;;2.00;0.70;;;23.70;80.70;;;;;;6245561;23;20003;-76
2023/05/02 12:28:01;;;;;;;2.17;0.68;;;23.70;45.80;;;;;;6245527;23;20020;-75
2023/05/02 12:30:28;;;;;;;1.27;0.90;;;24.00;80.30;;;;;;6245713;22;20074;-74
2023/05/02 12:33:00;;;;;;;2.70;0.95;;;23.90;48.20;;;;;;6245544;22;20000;-74
2023/05/02 12:35:27;;;;;;;1.35;0.77;;;23.90;48.10;;;;;;6245363;22;20335;-73
2023/05/02 12:37:55;;;;;;;1.38;0.57;;;;;;;;;;6245852;22;20323;-73
2023/05/02 12:40:21;;;;;;;1.75;0.95;;;24.20;80.40;;;;;;6245412;22;20507;-74
2023/05/02 12:43:02;;;;;;;1.77;0.73;;;23.60;80.20;;;;;;6245809;22;20024;-73
2023/05/02 12:45:32;;;;;;;1.52;0.70;;;23.70;80.20;;;;;;6245725;22;20000;-74
2023/05/02 12:48:00;;;;;;;0.88;0.60;;;24.30;47.70;;;;;;6245838;22;19996;-75
2023/05/02 12:50:38;;;;;;;2.33;0.70;;;24.30;44.90;;;;;;6245309;22;20030;-75
2023/05/02 12:53:06;;;;;;;3.78;0.60;;;;;;;;;;6245566;23;20004;-76
2023/05/02 12:55:32;;;;;;;2.20;0.70;;;;;;;;;;6245648;22;20000;-75
2023/05/02 12:58:05;;;;;;;2.42;0.90;;;24.50;44.50;;;;;;6255404;23;20308;-73
2023/05/02 13:00:32;;;;;;;0.50;0.43;;;24.90;66.20;;;;;;6255462;22;19997;-75
2023/05/02 13:02:58;;;;;;;1.45;0.65;;;24.80;80.20;;;;;;6255212;22;20008;-74
2023/05/02 13:05:23;;;;;;;1.73;0.60;;;24.70;80.20;;;;;;6245783;22;20034;-75
2023/05/02 13:07:49;;;;;;;1.65;0.50;;;24.70;80.20;;;;;;6255566;22;20415;-75
2023/05/02 13:10:17;;;;;;;1.65;0.57;;;;;;;;;;6255409;22;20004;-74
2023/05/02 13:12:43;;;;;;;1.48;0.60;;;24.40;53.40;;;;;;6245576;22;20071;-75
2023/05/02 13:15:09;;;;;;;3.22;1.20;;;24.40;79.10;;;;;;6255154;22;20008;-75
2023/05/02 13:17:35;;;;;;;1.00;0.50;;;24.60;79.80;;;;;;6245273;23;20146;-75
2023/05/02 13:20:00;;;;;;;0.88;0.60;;;24.40;66.80;;;;;;6255293;23;20506;-75
2023/05/02 13:22:26;;;;;;;1.65;0.75;;;24.60;46.40;;;;;;6244986;22;20002;-75
2023/05/02 13:24:52;;;;;;;1.60;0.60;;;24.60;46.20;;;;;;6255294;22;19992;-75